sensor_id;sensor_type;location;lat;lon;timestamp;pressure;altitude;pressure_sealevel;temperature
72035;BMP280;59899;43.412;23.216;2022-08-01T00:00:00;99644.66;;;22.19
72035;BMP280;59899;43.412;23.216;2022-08-01T00:02:28;99646.16;;;22.14
72035;BMP280;59899;43.412;23.216;2022-08-01T00:04:54;99637.13;;;22.06
72035;BMP280;59899;43.412;23.216;2022-08-01T00:07:20;99638.88;;;22.04
72035;BMP280;59899;43.412;23.216;2022-08-01T00:09:45;99629.81;;;22.01
72035;BMP280;59899;43.412;23.216;2022-08-01T00:12:10;99634.00;;;21.97
72035;BMP280;59899;43.412;23.216;2022-08-01T00:14:36;99637.44;;;21.92
72035;BMP280;59899;43.412;23.216;2022-08-01T00:17:02;99633.31;;;21.85
72035;BMP280;59899;43.412;23.216;2022-08-01T00:19:28;99627.69;;;21.83
72035;BMP280;59899;43.412;23.216;2022-08-01T00:21:53;99626.03;;;21.74
72035;BMP280;59899;43.412;23.216;2022-08-01T00:24:19;99622.59;;;21.68
72035;BMP280;59899;43.412;23.216;2022-08-01T00:26:44;99612.09;;;21.59
72035;BMP280;59899;43.412;23.216;2022-08-01T00:29:09;99613.13;;;21.51
72035;BMP280;59899;43.412;23.216;2022-08-01T00:31:35;99611.19;;;21.40
72035;BMP280;59899;43.412;23.216;2022-08-01T00:34:00;99615.91;;;21.34
72035;BMP280;59899;43.412;23.216;2022-08-01T00:36:26;99610.00;;;21.35
72035;BMP280;59899;43.412;23.216;2022-08-01T00:38:51;99608.28;;;21.38
72035;BMP280;59899;43.412;23.216;2022-08-01T00:41:17;99609.22;;;21.46
72035;BMP280;59899;43.412;23.216;2022-08-01T00:43:43;99607.25;;;21.52
72035;BMP280;59899;43.412;23.216;2022-08-01T00:46:08;99603.31;;;21.53
72035;BMP280;59899;43.412;23.216;2022-08-01T00:48:34;99594.44;;;21.58
72035;BMP280;59899;43.412;23.216;2022-08-01T00:50:59;99590.78;;;21.61
72035;BMP280;59899;43.412;23.216;2022-08-01T00:53:25;99582.69;;;21.61
72035;BMP280;59899;43.412;23.216;2022-08-01T00:55:51;99589.00;;;21.69
72035;BMP280;59899;43.412;23.216;2022-08-01T00:58:17;99590.94;;;21.74
72035;BMP280;59899;43.412;23.216;2022-08-01T01:00:42;99588.75;;;21.73
72035;BMP280;59899;43.412;23.216;2022-08-01T01:03:08;99584.09;;;21.73
72035;BMP280;59899;43.412;23.216;2022-08-01T01:05:48;99576.22;;;21.75
72035;BMP280;59899;43.412;23.216;2022-08-01T01:08:22;99576.22;;;21.75
72035;BMP280;59899;43.412;23.216;2022-08-01T01:10:56;99579.16;;;21.77
72035;BMP280;59899;43.412;23.216;2022-08-01T01:13:44;99581.34;;;21.79
72035;BMP280;59899;43.412;23.216;2022-08-01T01:16:15;99581.81;;;21.83
72035;BMP280;59899;43.412;23.216;2022-08-01T01:18:45;99579.56;;;21.87
72035;BMP280;59899;43.412;23.216;2022-08-01T01:27:05;99571.94;;;21.91
72035;BMP280;59899;43.412;23.216;2022-08-01T01:29:37;99577.38;;;21.86
72035;BMP280;59899;43.412;23.216;2022-08-01T01:32:17;99569.59;;;21.76
72035;BMP280;59899;43.412;23.216;2022-08-01T01:34:44;99567.16;;;21.67
72035;BMP280;59899;43.412;23.216;2022-08-01T01:37:15;99577.56;;;21.52
72035;BMP280;59899;43.412;23.216;2022-08-01T01:39:42;99572.44;;;21.43
72035;BMP280;59899;43.412;23.216;2022-08-01T01:42:09;99567.84;;;21.32
72035;BMP280;59899;43.412;23.216;2022-08-01T01:44:37;99562.97;;;21.20
72035;BMP280;59899;43.412;23.216;2022-08-01T01:47:03;99563.50;;;21.13
72035;BMP280;59899;43.412;23.216;2022-08-01T01:49:29;99562.06;;;21.06
72035;BMP280;59899;43.412;23.216;2022-08-01T01:51:56;99564.28;;;20.97
72035;BMP280;59899;43.412;23.216;2022-08-01T01:54:31;99559.16;;;20.87
72035;BMP280;59899;43.412;23.216;2022-08-01T01:56:59;99564.06;;;20.83
72035;BMP280;59899;43.412;23.216;2022-08-01T01:59:29;99571.44;;;20.83
72035;BMP280;59899;43.412;23.216;2022-08-01T02:01:57;99572.16;;;20.78
72035;BMP280;59899;43.412;23.216;2022-08-01T02:04:24;99574.16;;;20.55
72035;BMP280;59899;43.412;23.216;2022-08-01T02:06:52;99575.84;;;20.41
72035;BMP280;59899;43.412;23.216;2022-08-01T02:09:20;99579.28;;;20.25
72035;BMP280;59899;43.412;23.216;2022-08-01T02:11:49;99572.66;;;20.10
72035;BMP280;59899;43.412;23.216;2022-08-01T02:14:18;99566.00;;;19.94
72035;BMP280;59899;43.412;23.216;2022-08-01T02:16:49;99560.13;;;19.84
72035;BMP280;59899;43.412;23.216;2022-08-01T02:19:19;99560.09;;;19.79
72035;BMP280;59899;43.412;23.216;2022-08-01T02:24:24;99562.53;;;19.71
72035;BMP280;59899;43.412;23.216;2022-08-01T02:26:53;99559.13;;;19.71
72035;BMP280;59899;43.412;23.216;2022-08-01T02:29:27;99570.34;;;19.69
72035;BMP280;59899;43.412;23.216;2022-08-01T02:31:56;99568.66;;;19.66
72035;BMP280;59899;43.412;23.216;2022-08-01T02:34:28;99576.44;;;19.64
72035;BMP280;59899;43.412;23.216;2022-08-01T02:36:58;99582.81;;;19.61
72035;BMP280;59899;43.412;23.216;2022-08-01T02:39:24;99576.41;;;19.53
72035;BMP280;59899;43.412;23.216;2022-08-01T02:41:56;99574.88;;;19.41
72035;BMP280;59899;43.412;23.216;2022-08-01T02:44:29;99563.38;;;19.35
72035;BMP280;59899;43.412;23.216;2022-08-01T02:47:00;99550.88;;;19.32
72035;BMP280;59899;43.412;23.216;2022-08-01T02:49:30;99556.97;;;19.27
72035;BMP280;59899;43.412;23.216;2022-08-01T02:51:56;99556.72;;;19.25
72035;BMP280;59899;43.412;23.216;2022-08-01T02:54:23;99560.38;;;19.27
72035;BMP280;59899;43.412;23.216;2022-08-01T02:56:51;99572.84;;;19.25
72035;BMP280;59899;43.412;23.216;2022-08-01T02:59:18;99566.22;;;19.20
72035;BMP280;59899;43.412;23.216;2022-08-01T03:01:46;99561.56;;;19.15
72035;BMP280;59899;43.412;23.216;2022-08-01T03:04:14;99557.66;;;19.16
72035;BMP280;59899;43.412;23.216;2022-08-01T03:06:40;99561.84;;;19.17
72035;BMP280;59899;43.412;23.216;2022-08-01T03:09:07;99552.72;;;19.09
72035;BMP280;59899;43.412;23.216;2022-08-01T03:11:34;99545.13;;;19.02
72035;BMP280;59899;43.412;23.216;2022-08-01T03:14:03;99559.88;;;18.86
72035;BMP280;59899;43.412;23.216;2022-08-01T03:16:30;99562.50;;;18.69
72035;BMP280;59899;43.412;23.216;2022-08-01T03:18:58;99567.91;;;18.44
72035;BMP280;59899;43.412;23.216;2022-08-01T03:21:26;99563.66;;;18.37
72035;BMP280;59899;43.412;23.216;2022-08-01T03:23:54;99559.78;;;18.38
72035;BMP280;59899;43.412;23.216;2022-08-01T03:26:26;99558.53;;;18.33
72035;BMP280;59899;43.412;23.216;2022-08-01T03:28:55;99550.19;;;18.31
72035;BMP280;59899;43.412;23.216;2022-08-01T03:31:22;99551.91;;;18.29
72035;BMP280;59899;43.412;23.216;2022-08-01T03:33:47;99546.78;;;18.31
72035;BMP280;59899;43.412;23.216;2022-08-01T03:36:13;99550.69;;;18.30
72035;BMP280;59899;43.412;23.216;2022-08-01T03:38:40;99549.69;;;18.27
72035;BMP280;59899;43.412;23.216;2022-08-01T03:41:13;99544.75;;;18.20
72035;BMP280;59899;43.412;23.216;2022-08-01T03:43:45;99551.84;;;18.23
72035;BMP280;59899;43.412;23.216;2022-08-01T03:46:17;99548.22;;;18.26
72035;BMP280;59899;43.412;23.216;2022-08-01T03:48:47;99547.69;;;18.22
72035;BMP280;59899;43.412;23.216;2022-08-01T03:51:14;99550.13;;;18.20
72035;BMP280;59899;43.412;23.216;2022-08-01T03:53:42;99552.31;;;18.22
72035;BMP280;59899;43.412;23.216;2022-08-01T03:56:10;99557.22;;;18.23
72035;BMP280;59899;43.412;23.216;2022-08-01T03:58:38;99552.31;;;18.22
72035;BMP280;59899;43.412;23.216;2022-08-01T04:01:05;99552.38;;;18.27
72035;BMP280;59899;43.412;23.216;2022-08-01T04:03:32;99558.25;;;18.31
72035;BMP280;59899;43.412;23.216;2022-08-01T04:05:57;99554.09;;;18.30
72035;BMP280;59899;43.412;23.216;2022-08-01T04:08:23;99550.25;;;18.37
72035;BMP280;59899;43.412;23.216;2022-08-01T04:10:58;99549.78;;;18.38
72035;BMP280;59899;43.412;23.216;2022-08-01T04:13:24;99546.91;;;18.42
72035;BMP280;59899;43.412;23.216;2022-08-01T04:15:49;99550.84;;;18.47
72035;BMP280;59899;43.412;23.216;2022-08-01T04:18:15;99554.31;;;18.53
72035;BMP280;59899;43.412;23.216;2022-08-01T04:20:40;99556.06;;;18.61
72035;BMP280;59899;43.412;23.216;2022-08-01T04:23:07;99557.78;;;18.64
72035;BMP280;59899;43.412;23.216;2022-08-01T04:25:34;99556.38;;;18.69
72035;BMP280;59899;43.412;23.216;2022-08-01T04:28:01;99564.00;;;18.76
72035;BMP280;59899;43.412;23.216;2022-08-01T04:30:33;99556.69;;;18.82
72035;BMP280;59899;43.412;23.216;2022-08-01T04:33:01;99540.41;;;18.91
72035;BMP280;59899;43.412;23.216;2022-08-01T04:35:31;99551.47;;;19.04
72035;BMP280;59899;43.412;23.216;2022-08-01T04:37:58;99549.06;;;19.12
72035;BMP280;59899;43.412;23.216;2022-08-01T04:40:26;99550.63;;;19.24
72035;BMP280;59899;43.412;23.216;2022-08-01T04:42:52;99546.75;;;19.36
72035;BMP280;59899;43.412;23.216;2022-08-01T04:45:18;99538.25;;;19.43
72035;BMP280;59899;43.412;23.216;2022-08-01T04:47:43;99540.22;;;19.54
72035;BMP280;59899;43.412;23.216;2022-08-01T04:50:11;99533.44;;;19.64
72035;BMP280;59899;43.412;23.216;2022-08-01T04:52:37;99542.75;;;19.74
72035;BMP280;59899;43.412;23.216;2022-08-01T04:55:04;99541.56;;;19.86
72035;BMP280;59899;43.412;23.216;2022-08-01T04:57:33;99536.44;;;19.99
72035;BMP280;59899;43.412;23.216;2022-08-01T04:59:59;99537.19;;;20.11
72035;BMP280;59899;43.412;23.216;2022-08-01T05:02:25;99528.13;;;20.25
72035;BMP280;59899;43.412;23.216;2022-08-01T05:04:53;99528.63;;;20.35
72035;BMP280;59899;43.412;23.216;2022-08-01T05:07:20;99530.09;;;20.47
72035;BMP280;59899;43.412;23.216;2022-08-01T05:09:46;99533.72;;;20.66
72035;BMP280;59899;43.412;23.216;2022-08-01T05:12:11;99545.22;;;20.83
72035;BMP280;59899;43.412;23.216;2022-08-01T05:14:37;99535.50;;;21.32
72035;BMP280;59899;43.412;23.216;2022-08-01T05:17:04;99524.69;;;21.79
72035;BMP280;59899;43.412;23.216;2022-08-01T05:19:30;99536.38;;;22.22
72035;BMP280;59899;43.412;23.216;2022-08-01T05:22:00;99515.63;;;22.60
72035;BMP280;59899;43.412;23.216;2022-08-01T05:24:27;99521.47;;;22.89
72035;BMP280;59899;43.412;23.216;2022-08-01T05:26:54;99520.31;;;23.22
72035;BMP280;59899;43.412;23.216;2022-08-01T05:29:20;99525.25;;;23.55
72035;BMP280;59899;43.412;23.216;2022-08-01T05:31:45;99520.69;;;23.82
72035;BMP280;59899;43.412;23.216;2022-08-01T05:34:10;99516.16;;;24.16
72035;BMP280;59899;43.412;23.216;2022-08-01T05:36:36;99519.59;;;24.43
72035;BMP280;59899;43.412;23.216;2022-08-01T05:39:03;99522.84;;;24.68
72035;BMP280;59899;43.412;23.216;2022-08-01T05:41:29;99539.19;;;24.88
72035;BMP280;59899;43.412;23.216;2022-08-01T05:43:54;99524.25;;;25.08
72035;BMP280;59899;43.412;23.216;2022-08-01T05:46:20;99520.63;;;25.26
72035;BMP280;59899;43.412;23.216;2022-08-01T05:48:45;99527.63;;;25.42
72035;BMP280;59899;43.412;23.216;2022-08-01T05:51:11;99536.13;;;25.60
72035;BMP280;59899;43.412;23.216;2022-08-01T05:53:36;99529.94;;;25.72
72035;BMP280;59899;43.412;23.216;2022-08-01T05:56:02;99530.88;;;25.75
72035;BMP280;59899;43.412;23.216;2022-08-01T05:58:27;99543.53;;;25.72
72035;BMP280;59899;43.412;23.216;2022-08-01T06:00:53;99539.00;;;25.75
72035;BMP280;59899;43.412;23.216;2022-08-01T06:03:18;99538.53;;;25.84
72035;BMP280;59899;43.412;23.216;2022-08-01T06:05:44;99543.22;;;26.04
72035;BMP280;59899;43.412;23.216;2022-08-01T06:08:09;99544.44;;;26.24
72035;BMP280;59899;43.412;23.216;2022-08-01T06:10:35;99529.81;;;26.34
72035;BMP280;59899;43.412;23.216;2022-08-01T06:13:00;99545.34;;;26.26
72035;BMP280;59899;43.412;23.216;2022-08-01T06:15:29;99549.47;;;26.20
72035;BMP280;59899;43.412;23.216;2022-08-01T06:17:54;99547.19;;;26.31
72035;BMP280;59899;43.412;23.216;2022-08-01T06:20:20;99550.16;;;26.49
72035;BMP280;59899;43.412;23.216;2022-08-01T06:22:45;99544.84;;;26.71
72035;BMP280;59899;43.412;23.216;2022-08-01T06:25:11;99548.69;;;26.76
72035;BMP280;59899;43.412;23.216;2022-08-01T06:27:36;99547.03;;;26.73
72035;BMP280;59899;43.412;23.216;2022-08-01T06:30:03;99546.34;;;26.80
72035;BMP280;59899;43.412;23.216;2022-08-01T06:32:28;99559.09;;;26.93
72035;BMP280;59899;43.412;23.216;2022-08-01T06:34:54;99559.63;;;27.06
72035;BMP280;59899;43.412;23.216;2022-08-01T06:37:20;99555.34;;;27.18
72035;BMP280;59899;43.412;23.216;2022-08-01T06:39:46;99555.16;;;27.16
72035;BMP280;59899;43.412;23.216;2022-08-01T06:42:12;99551.53;;;27.14
72035;BMP280;59899;43.412;23.216;2022-08-01T06:44:38;99551.53;;;27.14
72035;BMP280;59899;43.412;23.216;2022-08-01T06:47:03;99556.06;;;27.26
72035;BMP280;59899;43.412;23.216;2022-08-01T06:49:28;99547.53;;;27.22
72035;BMP280;59899;43.412;23.216;2022-08-01T06:51:54;99543.19;;;27.19
72035;BMP280;59899;43.412;23.216;2022-08-01T06:54:19;99556.44;;;27.15
72035;BMP280;59899;43.412;23.216;2022-08-01T06:56:46;99562.06;;;27.32
72035;BMP280;59899;43.412;23.216;2022-08-01T06:59:11;99544.28;;;27.31
72035;BMP280;59899;43.412;23.216;2022-08-01T07:01:36;99540.66;;;27.44
72035;BMP280;59899;43.412;23.216;2022-08-01T07:04:03;99548.47;;;27.55
72035;BMP280;59899;43.412;23.216;2022-08-01T07:06:28;99553.94;;;27.63
72035;BMP280;59899;43.412;23.216;2022-08-01T07:08:54;99548.28;;;27.76
72035;BMP280;59899;43.412;23.216;2022-08-01T07:11:21;99541.94;;;27.73
72035;BMP280;59899;43.412;23.216;2022-08-01T07:13:47;99546.47;;;27.78
72035;BMP280;59899;43.412;23.216;2022-08-01T07:16:13;99540.66;;;27.97
72035;BMP280;59899;43.412;23.216;2022-08-01T07:18:38;99532.09;;;28.01
72035;BMP280;59899;43.412;23.216;2022-08-01T07:21:04;99542.09;;;27.98
72035;BMP280;59899;43.412;23.216;2022-08-01T07:23:29;99526.66;;;28.08
72035;BMP280;59899;43.412;23.216;2022-08-01T07:25:55;99524.50;;;27.99
72035;BMP280;59899;43.412;23.216;2022-08-01T07:28:20;99550.13;;;27.96
72035;BMP280;59899;43.412;23.216;2022-08-01T07:30:46;99552.09;;;27.96
72035;BMP280;59899;43.412;23.216;2022-08-01T07:33:12;99545.94;;;27.95
72035;BMP280;59899;43.412;23.216;2022-08-01T07:35:37;99538.31;;;28.09
72035;BMP280;59899;43.412;23.216;2022-08-01T07:38:08;99541.53;;;28.00
72035;BMP280;59899;43.412;23.216;2022-08-01T07:40:33;99553.72;;;28.06
72035;BMP280;59899;43.412;23.216;2022-08-01T07:42:59;99538.63;;;28.20
72035;BMP280;59899;43.412;23.216;2022-08-01T07:45:24;99530.72;;;28.39
72035;BMP280;59899;43.412;23.216;2022-08-01T07:47:51;99552.16;;;28.51
72035;BMP280;59899;43.412;23.216;2022-08-01T07:50:17;99547.97;;;28.57
72035;BMP280;59899;43.412;23.216;2022-08-01T07:52:42;99546.97;;;28.70
72035;BMP280;59899;43.412;23.216;2022-08-01T07:55:09;99537.59;;;28.56
72035;BMP280;59899;43.412;23.216;2022-08-01T07:57:35;99558.09;;;28.64
72035;BMP280;59899;43.412;23.216;2022-08-01T08:00:03;99558.47;;;28.61
72035;BMP280;59899;43.412;23.216;2022-08-01T08:02:28;99550.34;;;28.53
72035;BMP280;59899;43.412;23.216;2022-08-01T08:04:54;99556.47;;;28.61
72035;BMP280;59899;43.412;23.216;2022-08-01T08:07:19;99555.78;;;28.46
72035;BMP280;59899;43.412;23.216;2022-08-01T08:09:45;99565.09;;;28.82
72035;BMP280;59899;43.412;23.216;2022-08-01T08:12:10;99576.59;;;28.81
72035;BMP280;59899;43.412;23.216;2022-08-01T08:14:36;99573.13;;;28.80
72035;BMP280;59899;43.412;23.216;2022-08-01T08:17:01;99562.53;;;28.84
72035;BMP280;59899;43.412;23.216;2022-08-01T08:19:27;99562.34;;;28.90
72035;BMP280;59899;43.412;23.216;2022-08-01T08:21:52;99568.72;;;28.85
72035;BMP280;59899;43.412;23.216;2022-08-01T08:24:18;99567.28;;;28.76
72035;BMP280;59899;43.412;23.216;2022-08-01T08:26:51;99561.84;;;28.76
72035;BMP280;59899;43.412;23.216;2022-08-01T08:29:18;99564.16;;;28.87
72035;BMP280;59899;43.412;23.216;2022-08-01T08:31:44;99576.63;;;29.06
72035;BMP280;59899;43.412;23.216;2022-08-01T08:34:09;99591.16;;;29.08
72035;BMP280;59899;43.412;23.216;2022-08-01T08:36:35;99576.91;;;29.17
72035;BMP280;59899;43.412;23.216;2022-08-01T08:39:00;99573.19;;;29.30
72035;BMP280;59899;43.412;23.216;2022-08-01T08:41:26;99574.81;;;29.33
72035;BMP280;59899;43.412;23.216;2022-08-01T08:43:52;99579.25;;;29.46
72035;BMP280;59899;43.412;23.216;2022-08-01T08:46:20;99590.09;;;29.04
72035;BMP280;59899;43.412;23.216;2022-08-01T08:48:46;99578.44;;;29.11
72035;BMP280;59899;43.412;23.216;2022-08-01T08:51:13;99569.75;;;29.29
72035;BMP280;59899;43.412;23.216;2022-08-01T08:53:40;99575.22;;;29.47
72035;BMP280;59899;43.412;23.216;2022-08-01T08:56:13;99568.34;;;29.46
72035;BMP280;59899;43.412;23.216;2022-08-01T08:58:44;99573.44;;;29.66
72035;BMP280;59899;43.412;23.216;2022-08-01T09:01:10;99571.94;;;29.90
72035;BMP280;59899;43.412;23.216;2022-08-01T09:03:38;99563.13;;;29.99
72035;BMP280;59899;43.412;23.216;2022-08-01T09:06:04;99553.88;;;30.12
72035;BMP280;59899;43.412;23.216;2022-08-01T09:08:30;99557.16;;;29.93
72035;BMP280;59899;43.412;23.216;2022-08-01T09:10:56;99553.44;;;30.32
72035;BMP280;59899;43.412;23.216;2022-08-01T09:13:21;99553.69;;;30.44
72035;BMP280;59899;43.412;23.216;2022-08-01T09:15:49;99563.94;;;30.26
72035;BMP280;59899;43.412;23.216;2022-08-01T09:18:38;99556.84;;;30.06
72035;BMP280;59899;43.412;23.216;2022-08-01T09:23:36;99559.88;;;29.93
72035;BMP280;59899;43.412;23.216;2022-08-01T09:26:08;99568.34;;;30.22
72035;BMP280;59899;43.412;23.216;2022-08-01T09:28:34;99546.41;;;30.56
72035;BMP280;59899;43.412;23.216;2022-08-01T09:31:06;99540.22;;;30.82
72035;BMP280;59899;43.412;23.216;2022-08-01T09:34:07;99547.91;;;30.67
72035;BMP280;59899;43.412;23.216;2022-08-01T09:39:17;99550.41;;;30.45
72035;BMP280;59899;43.412;23.216;2022-08-01T09:41:43;99568.56;;;30.51
72035;BMP280;59899;43.412;23.216;2022-08-01T09:44:08;99570.91;;;30.64
72035;BMP280;59899;43.412;23.216;2022-08-01T09:46:34;99566.94;;;31.01
72035;BMP280;59899;43.412;23.216;2022-08-01T09:49:02;99557.31;;;31.10
72035;BMP280;59899;43.412;23.216;2022-08-01T09:51:33;99559.41;;;31.28
72035;BMP280;59899;43.412;23.216;2022-08-01T09:53:59;99554.69;;;31.38
72035;BMP280;59899;43.412;23.216;2022-08-01T09:56:25;99541.44;;;31.44
72035;BMP280;59899;43.412;23.216;2022-08-01T09:58:56;99544.63;;;31.70
72035;BMP280;59899;43.412;23.216;2022-08-01T10:01:22;99553.72;;;31.72
72035;BMP280;59899;43.412;23.216;2022-08-01T10:04:07;99544.34;;;31.75
72035;BMP280;59899;43.412;23.216;2022-08-01T10:06:33;99551.56;;;31.80
72035;BMP280;59899;43.412;23.216;2022-08-01T10:08:59;99555.63;;;31.89
72035;BMP280;59899;43.412;23.216;2022-08-01T10:11:24;99556.31;;;31.89
72035;BMP280;59899;43.412;23.216;2022-08-01T10:13:50;99528.03;;;32.06
72035;BMP280;59899;43.412;23.216;2022-08-01T10:16:16;99564.97;;;32.05
72035;BMP280;59899;43.412;23.216;2022-08-01T10:18:43;99544.66;;;31.89
72035;BMP280;59899;43.412;23.216;2022-08-01T10:21:10;99528.91;;;31.61
72035;BMP280;59899;43.412;23.216;2022-08-01T10:23:37;99531.50;;;31.58
72035;BMP280;59899;43.412;23.216;2022-08-01T10:26:05;99531.66;;;31.80
72035;BMP280;59899;43.412;23.216;2022-08-01T10:28:34;99521.84;;;31.77
72035;BMP280;59899;43.412;23.216;2022-08-01T10:31:02;99527.19;;;31.75
72035;BMP280;59899;43.412;23.216;2022-08-01T10:33:29;99526.28;;;31.82
72035;BMP280;59899;43.412;23.216;2022-08-01T10:35:55;99531.09;;;31.91
72035;BMP280;59899;43.412;23.216;2022-08-01T10:38:21;99519.13;;;31.86
72035;BMP280;59899;43.412;23.216;2022-08-01T10:40:49;99518.06;;;32.01
72035;BMP280;59899;43.412;23.216;2022-08-01T10:43:16;99526.75;;;32.07
72035;BMP280;59899;43.412;23.216;2022-08-01T10:45:44;99510.13;;;32.05
72035;BMP280;59899;43.412;23.216;2022-08-01T10:48:41;99514.75;;;32.12
72035;BMP280;59899;43.412;23.216;2022-08-01T10:51:08;99525.13;;;32.13
72035;BMP280;59899;43.412;23.216;2022-08-01T10:53:33;99515.78;;;32.07
72035;BMP280;59899;43.412;23.216;2022-08-01T10:56:01;99513.91;;;31.90
72035;BMP280;59899;43.412;23.216;2022-08-01T10:58:31;99518.53;;;31.69
72035;BMP280;59899;43.412;23.216;2022-08-01T11:03:41;99514.47;;;31.98
72035;BMP280;59899;43.412;23.216;2022-08-01T11:06:17;99515.44;;;32.22
72035;BMP280;59899;43.412;23.216;2022-08-01T11:08:53;99507.84;;;32.51
72035;BMP280;59899;43.412;23.216;2022-08-01T11:11:19;99518.91;;;32.73
72035;BMP280;59899;43.412;23.216;2022-08-01T11:16:31;99507.84;;;32.51
72035;BMP280;59899;43.412;23.216;2022-08-01T11:18:56;99501.09;;;32.43
72035;BMP280;59899;43.412;23.216;2022-08-01T11:27:26;99501.53;;;32.80
72035;BMP280;59899;43.412;23.216;2022-08-01T11:32:33;99510.47;;;33.11
72035;BMP280;59899;43.412;23.216;2022-08-01T11:34:59;99503.19;;;32.94
72035;BMP280;59899;43.412;23.216;2022-08-01T11:37:26;99504.38;;;32.51
72035;BMP280;59899;43.412;23.216;2022-08-01T11:40:21;99495.69;;;32.14
72035;BMP280;59899;43.412;23.216;2022-08-01T11:42:48;99493.09;;;32.16
72035;BMP280;59899;43.412;23.216;2022-08-01T11:45:14;99496.84;;;32.11
72035;BMP280;59899;43.412;23.216;2022-08-01T11:47:50;99486.31;;;31.98
72035;BMP280;59899;43.412;23.216;2022-08-01T11:53:05;99484.09;;;32.25
72035;BMP280;59899;43.412;23.216;2022-08-01T11:55:31;99483.94;;;32.42
72035;BMP280;59899;43.412;23.216;2022-08-01T11:58:10;99486.69;;;32.42
72035;BMP280;59899;43.412;23.216;2022-08-01T12:00:36;99478.75;;;32.27
72035;BMP280;59899;43.412;23.216;2022-08-01T12:03:05;99481.22;;;32.33
72035;BMP280;59899;43.412;23.216;2022-08-01T12:05:35;99483.53;;;32.27
72035;BMP280;59899;43.412;23.216;2022-08-01T12:08:02;99484.72;;;32.14
72035;BMP280;59899;43.412;23.216;2022-08-01T12:10:34;99469.13;;;32.17
72035;BMP280;59899;43.412;23.216;2022-08-01T12:13:05;99469.50;;;32.32
72035;BMP280;59899;43.412;23.216;2022-08-01T12:15:36;99458.56;;;32.63
72035;BMP280;59899;43.412;23.216;2022-08-01T12:18:06;99457.50;;;32.78
72035;BMP280;59899;43.412;23.216;2022-08-01T12:20:38;99469.63;;;32.75
72035;BMP280;59899;43.412;23.216;2022-08-01T12:23:08;99464.19;;;32.65
72035;BMP280;59899;43.412;23.216;2022-08-01T12:25:42;99467.19;;;32.69
72035;BMP280;59899;43.412;23.216;2022-08-01T12:28:13;99462.84;;;32.97
72035;BMP280;59899;43.412;23.216;2022-08-01T12:30:39;99449.91;;;33.09
72035;BMP280;59899;43.412;23.216;2022-08-01T12:33:10;99450.84;;;33.23
72035;BMP280;59899;43.412;23.216;2022-08-01T12:35:40;99477.56;;;33.22
72035;BMP280;59899;43.412;23.216;2022-08-01T12:38:17;99461.75;;;32.59
72035;BMP280;59899;43.412;23.216;2022-08-01T12:40:45;99466.84;;;32.03
72035;BMP280;59899;43.412;23.216;2022-08-01T12:43:22;99455.63;;;31.90
72035;BMP280;59899;43.412;23.216;2022-08-01T12:45:51;99463.41;;;31.93
72035;BMP280;59899;43.412;23.216;2022-08-01T12:48:18;99462.84;;;31.85
72035;BMP280;59899;43.412;23.216;2022-08-01T12:50:48;99455.31;;;31.95
72035;BMP280;59899;43.412;23.216;2022-08-01T12:53:15;99459.19;;;32.02
72035;BMP280;59899;43.412;23.216;2022-08-01T12:55:54;99451.44;;;31.89
72035;BMP280;59899;43.412;23.216;2022-08-01T12:58:20;99451.31;;;31.68
72035;BMP280;59899;43.412;23.216;2022-08-01T13:01:01;99454.34;;;31.72
72035;BMP280;59899;43.412;23.216;2022-08-01T13:03:27;99453.19;;;31.75
72035;BMP280;59899;43.412;23.216;2022-08-01T13:05:57;99442.09;;;31.73
72035;BMP280;59899;43.412;23.216;2022-08-01T13:08:24;99443.66;;;31.76
72035;BMP280;59899;43.412;23.216;2022-08-01T13:10:53;99443.97;;;31.41
72035;BMP280;59899;43.412;23.216;2022-08-01T13:13:26;99445.97;;;31.12
72035;BMP280;59899;43.412;23.216;2022-08-01T13:16:06;99446.34;;;31.09
72035;BMP280;59899;43.412;23.216;2022-08-01T13:18:33;99435.41;;;31.09
72035;BMP280;59899;43.412;23.216;2022-08-01T13:21:10;99443.09;;;31.29
72035;BMP280;59899;43.412;23.216;2022-08-01T13:23:37;99447.56;;;31.44
72035;BMP280;59899;43.412;23.216;2022-08-01T13:26:03;99444.56;;;31.40
72035;BMP280;59899;43.412;23.216;2022-08-01T13:28:29;99445.81;;;31.29
72035;BMP280;59899;43.412;23.216;2022-08-01T13:30:59;99442.22;;;31.17
72035;BMP280;59899;43.412;23.216;2022-08-01T13:33:27;99432.94;;;31.03
72035;BMP280;59899;43.412;23.216;2022-08-01T13:35:54;99432.53;;;31.16
72035;BMP280;59899;43.412;23.216;2022-08-01T13:38:20;99429.97;;;31.18
72035;BMP280;59899;43.412;23.216;2022-08-01T13:41:06;99440.16;;;31.08
72035;BMP280;59899;43.412;23.216;2022-08-01T13:43:34;99440.44;;;30.93
72035;BMP280;59899;43.412;23.216;2022-08-01T13:46:01;99436.50;;;30.86
72035;BMP280;59899;43.412;23.216;2022-08-01T13:48:30;99434.03;;;30.81
72035;BMP280;59899;43.412;23.216;2022-08-01T13:50:56;99437.25;;;30.96
72035;BMP280;59899;43.412;23.216;2022-08-01T13:53:22;99428.81;;;31.12
72035;BMP280;59899;43.412;23.216;2022-08-01T13:55:47;99425.91;;;31.19
72035;BMP280;59899;43.412;23.216;2022-08-01T13:58:13;99442.25;;;31.36
72035;BMP280;59899;43.412;23.216;2022-08-01T14:00:38;99434.72;;;31.46
72035;BMP280;59899;43.412;23.216;2022-08-01T14:03:04;99431.59;;;31.40
72035;BMP280;59899;43.412;23.216;2022-08-01T14:05:30;99435.75;;;31.51
72035;BMP280;59899;43.412;23.216;2022-08-01T14:07:56;99428.66;;;31.57
72035;BMP280;59899;43.412;23.216;2022-08-01T14:10:21;99428.97;;;31.62
72035;BMP280;59899;43.412;23.216;2022-08-01T14:12:47;99430.28;;;31.61
72035;BMP280;59899;43.412;23.216;2022-08-01T14:15:13;99439.47;;;31.75
72035;BMP280;59899;43.412;23.216;2022-08-01T14:17:39;99425.47;;;31.90
72035;BMP280;59899;43.412;23.216;2022-08-01T14:20:04;99439.75;;;31.88
72035;BMP280;59899;43.412;23.216;2022-08-01T14:22:30;99435.84;;;31.82
72035;BMP280;59899;43.412;23.216;2022-08-01T14:24:56;99439.75;;;31.88
72035;BMP280;59899;43.412;23.216;2022-08-01T14:27:21;99437.16;;;31.90
72035;BMP280;59899;43.412;23.216;2022-08-01T14:29:47;99440.72;;;32.02